sensor_id;sensor_type;location;lat;lon;timestamp;pressure;altitude;pressure_sealevel;temperature;humidity
33422;BME280;19763;55.798;37.782;2023-03-11T00:00:42;146341.06;;;-4.01;67.34
33422;BME280;19763;55.798;37.782;2023-03-11T00:03:12;146343.59;;;-4.00;68.11
33422;BME280;19763;55.798;37.782;2023-03-11T00:05:39;146341.06;;;-4.01;67.71
33422;BME280;19763;55.798;37.782;2023-03-11T00:08:07;146341.06;;;-4.01;66.62
33422;BME280;19763;55.798;37.782;2023-03-11T00:10:36;146389.22;;;-3.81;66.62
33422;BME280;19763;55.798;37.782;2023-03-11T00:13:04;146381.63;;;-3.84;66.75
33422;BME280;19763;55.798;37.782;2023-03-11T00:15:31;146347.41;;;-3.98;66.94
33422;BME280;19763;55.798;37.782;2023-03-11T00:17:57;146374.03;;;-3.87;66.24
33422;BME280;19763;55.798;37.782;2023-03-11T00:22:51;146295.47;;;-4.19;65.84
33422;BME280;19763;55.798;37.782;2023-03-11T00:25:17;146290.41;;;-4.21;66.80
33422;BME280;19763;55.798;37.782;2023-03-11T00:27:44;146277.72;;;-4.26;66.95
33422;BME280;19763;55.798;37.782;2023-03-11T00:30:11;146291.66;;;-4.21;66.10
33422;BME280;19763;55.798;37.782;2023-03-11T00:32:37;146246.06;;;-4.39;65.75
33422;BME280;19763;55.798;37.782;2023-03-11T00:35:03;146275.22;;;-4.27;66.02
33422;BME280;19763;55.798;37.782;2023-03-11T00:37:29;146232.13;;;-4.45;66.87
33422;BME280;19763;55.798;37.782;2023-03-11T00:39:54;146196.69;;;-4.59;66.34
33422;BME280;19763;55.798;37.782;2023-03-11T00:42:20;146216.94;;;-4.51;66.58
33422;BME280;19763;55.798;37.782;2023-03-11T00:44:46;146244.81;;;-4.40;65.59
33422;BME280;19763;55.798;37.782;2023-03-11T00:47:12;146241.03;;;-4.41;66.24
33422;BME280;19763;55.798;37.782;2023-03-11T00:49:37;146239.72;;;-4.42;67.20
33422;BME280;19763;55.798;37.782;2023-03-11T00:52:03;146254.94;;;-4.36;66.99
33422;BME280;19763;55.798;37.782;2023-03-11T00:54:29;146249.84;;;-4.38;67.07
33422;BME280;19763;55.798;37.782;2023-03-11T00:56:55;146290.41;;;-4.21;67.03
33422;BME280;19763;55.798;37.782;2023-03-11T00:59:21;146273.94;;;-4.28;66.08
33422;BME280;19763;55.798;37.782;2023-03-11T01:01:47;146333.47;;;-4.04;66.44
33422;BME280;19763;55.798;37.782;2023-03-11T01:04:12;146336.00;;;-4.03;66.42
33422;BME280;19763;55.798;37.782;2023-03-11T01:06:38;146336.00;;;-4.03;66.73
33422;BME280;19763;55.798;37.782;2023-03-11T01:09:03;146343.59;;;-4.00;66.91
33422;BME280;19763;55.798;37.782;2023-03-11T01:11:30;146309.38;;;-4.13;66.20
33422;BME280;19763;55.798;37.782;2023-03-11T01:13:56;146306.88;;;-4.14;66.61
33422;BME280;19763;55.798;37.782;2023-03-11T01:16:22;146314.47;;;-4.11;66.69
33422;BME280;19763;55.798;37.782;2023-03-11T01:18:47;146275.22;;;-4.27;67.29
33422;BME280;19763;55.798;37.782;2023-03-11T01:21:13;146257.50;;;-4.35;66.78
33422;BME280;19763;55.798;37.782;2023-03-11T01:23:40;146200.47;;;-4.58;67.70
33422;BME280;19763;55.798;37.782;2023-03-11T01:26:06;146276.47;;;-4.27;67.13
33422;BME280;19763;55.798;37.782;2023-03-11T01:28:31;146247.34;;;-4.39;67.25
33422;BME280;19763;55.798;37.782;2023-03-11T01:30:57;146233.44;;;-4.44;67.84
33422;BME280;19763;55.798;37.782;2023-03-11T01:33:23;146252.41;;;-4.37;67.28
33422;BME280;19763;55.798;37.782;2023-03-11T01:35:48;146242.28;;;-4.41;68.70
33422;BME280;19763;55.798;37.782;2023-03-11T01:38:14;146196.69;;;-4.59;68.30
33422;BME280;19763;55.798;37.782;2023-03-11T01:40:43;146167.59;;;-4.71;69.06
33422;BME280;19763;55.798;37.782;2023-03-11T01:46:27;146256.19;;;-4.35;67.64
33422;BME280;19763;55.798;37.782;2023-03-11T01:49:01;146261.28;;;-4.33;67.94
33422;BME280;19763;55.798;37.782;2023-03-11T01:51:43;146204.28;;;-4.56;69.27
33422;BME280;19763;55.798;37.782;2023-03-11T01:54:29;146148.56;;;-4.79;69.23
33422;BME280;19763;55.798;37.782;2023-03-11T01:56:57;146130.84;;;-4.86;68.67
33422;BME280;19763;55.798;37.782;2023-03-11T01:59:26;146184.06;;;-4.64;69.79
33422;BME280;19763;55.798;37.782;2023-03-11T02:02:07;146146.06;;;-4.80;69.83
33422;BME280;19763;55.798;37.782;2023-03-11T02:04:35;146143.53;;;-4.81;70.80
33422;BME280;19763;55.798;37.782;2023-03-11T02:07:02;146138.47;;;-4.83;69.37
33422;BME280;19763;55.798;37.782;2023-03-11T02:09:29;146124.56;;;-4.89;70.26
33422;BME280;19763;55.798;37.782;2023-03-11T02:11:55;146146.06;;;-4.80;70.04
33422;BME280;19763;55.798;37.782;2023-03-11T02:14:22;146118.22;;;-4.91;70.71
33422;BME280;19763;55.798;37.782;2023-03-11T02:16:49;146156.19;;;-4.76;71.10
33422;BME280;19763;55.798;37.782;2023-03-11T02:22:07;146143.53;;;-4.81;70.13
33422;BME280;19763;55.798;37.782;2023-03-11T02:25:09;146082.78;;;-5.06;70.68
33422;BME280;19763;55.798;37.782;2023-03-11T02:27:36;146092.91;;;-5.01;70.31
33422;BME280;19763;55.798;37.782;2023-03-11T02:30:03;146105.53;;;-4.96;71.85
33422;BME280;19763;55.798;37.782;2023-03-11T02:32:29;146063.78;;;-5.13;70.60
33422;BME280;19763;55.798;37.782;2023-03-11T02:34:55;146143.53;;;-4.81;71.27
33422;BME280;19763;55.798;37.782;2023-03-11T02:37:21;146097.94;;;-4.99;71.20
33422;BME280;19763;55.798;37.782;2023-03-11T02:39:49;146143.53;;;-4.81;71.38
33422;BME280;19763;55.798;37.782;2023-03-11T02:42:44;146138.47;;;-4.83;72.45
33422;BME280;19763;55.798;37.782;2023-03-11T02:45:12;146134.63;;;-4.85;71.44
33422;BME280;19763;55.798;37.782;2023-03-11T02:47:39;146168.81;;;-4.71;71.56
33422;BME280;19763;55.798;37.782;2023-03-11T02:50:07;146154.91;;;-4.76;70.98
33422;BME280;19763;55.798;37.782;2023-03-11T02:52:35;146165.03;;;-4.72;70.83
33422;BME280;19763;55.798;37.782;2023-03-11T02:55:01;146151.09;;;-4.78;71.91
33422;BME280;19763;55.798;37.782;2023-03-11T02:57:26;146148.56;;;-4.79;70.69
33422;BME280;19763;55.798;37.782;2023-03-11T02:59:52;146110.63;;;-4.94;71.80
33422;BME280;19763;55.798;37.782;2023-03-11T03:02:18;146153.66;;;-4.77;71.54
33422;BME280;19763;55.798;37.782;2023-03-11T03:04:44;146151.09;;;-4.78;71.66
33422;BME280;19763;55.798;37.782;2023-03-11T03:07:09;146165.03;;;-4.72;71.81
33422;BME280;19763;55.798;37.782;2023-03-11T03:09:35;146152.41;;;-4.77;72.19
33422;BME280;19763;55.798;37.782;2023-03-11T03:12:02;146140.97;;;-4.82;71.37
33422;BME280;19763;55.798;37.782;2023-03-11T03:14:28;146123.25;;;-4.89;72.08
33422;BME280;19763;55.798;37.782;2023-03-11T03:16:54;146148.56;;;-4.79;71.41
33422;BME280;19763;55.798;37.782;2023-03-11T03:19:20;146101.75;;;-4.98;70.82
33422;BME280;19763;55.798;37.782;2023-03-11T03:21:45;146128.34;;;-4.87;70.91
33422;BME280;19763;55.798;37.782;2023-03-11T03:24:11;146140.97;;;-4.82;70.53
33422;BME280;19763;55.798;37.782;2023-03-11T03:26:37;146070.09;;;-5.11;72.53
33422;BME280;19763;55.798;37.782;2023-03-11T03:29:03;146097.94;;;-4.99;72.59
33422;BME280;19763;55.798;37.782;2023-03-11T03:31:30;146127.06;;;-4.88;71.55
33422;BME280;19763;55.798;37.782;2023-03-11T03:33:56;146148.56;;;-4.79;72.31
33422;BME280;19763;55.798;37.782;2023-03-11T03:36:22;146149.84;;;-4.78;71.72
33422;BME280;19763;55.798;37.782;2023-03-11T03:38:52;146165.03;;;-4.72;71.56
33422;BME280;19763;55.798;37.782;2023-03-11T03:41:18;146142.28;;;-4.81;73.03
33422;BME280;19763;55.798;37.782;2023-03-11T03:43:43;146065.06;;;-5.13;72.91
33422;BME280;19763;55.798;37.782;2023-03-11T03:46:09;145976.47;;;-5.49;75.03
33422;BME280;19763;55.798;37.782;2023-03-11T03:48:34;146003.03;;;-5.38;77.11
33422;BME280;19763;55.798;37.782;2023-03-11T03:51:06;145997.97;;;-5.40;76.43
33422;BME280;19763;55.798;37.782;2023-03-11T03:53:33;145976.47;;;-5.49;77.64
33422;BME280;19763;55.798;37.782;2023-03-11T03:56:04;146033.44;;;-5.26;76.96
33422;BME280;19763;55.798;37.782;2023-03-11T03:58:30;145997.97;;;-5.40;78.05
33422;BME280;19763;55.798;37.782;2023-03-11T04:00:56;146067.56;;;-5.12;79.40
33422;BME280;19763;55.798;37.782;2023-03-11T04:03:22;146023.31;;;-5.30;80.00
33422;BME280;19763;55.798;37.782;2023-03-11T04:05:48;146019.50;;;-5.31;79.09
33422;BME280;19763;55.798;37.782;2023-03-11T04:08:13;146044.81;;;-5.21;79.23
33422;BME280;19763;55.798;37.782;2023-03-11T04:10:39;145977.75;;;-5.48;79.57
33422;BME280;19763;55.798;37.782;2023-03-11T04:13:05;146038.47;;;-5.24;81.06
33422;BME280;19763;55.798;37.782;2023-03-11T04:15:30;146014.44;;;-5.33;80.85
33422;BME280;19763;55.798;37.782;2023-03-11T04:17:56;145999.25;;;-5.40;79.92
33422;BME280;19763;55.798;37.782;2023-03-11T04:20:21;146013.19;;;-5.34;80.19
33422;BME280;19763;55.798;37.782;2023-03-11T04:22:47;146022.00;;;-5.30;80.17
33422;BME280;19763;55.798;37.782;2023-03-11T04:25:12;145977.75;;;-5.48;80.98
33422;BME280;19763;55.798;37.782;2023-03-11T04:27:38;146041.00;;;-5.23;80.18
33422;BME280;19763;55.798;37.782;2023-03-11T04:30:08;146065.06;;;-5.13;80.69
33422;BME280;19763;55.798;37.782;2023-03-11T04:32:33;146072.66;;;-5.10;79.97
33422;BME280;19763;55.798;37.782;2023-03-11T04:34:59;146085.28;;;-5.05;80.55
33422;BME280;19763;55.798;37.782;2023-03-11T04:37:28;146042.25;;;-5.22;81.12
33422;BME280;19763;55.798;37.782;2023-03-11T04:39:54;146006.84;;;-5.37;81.07
33422;BME280;19763;55.798;37.782;2023-03-11T04:42:19;146033.44;;;-5.26;80.86
33422;BME280;19763;55.798;37.782;2023-03-11T04:44:45;146047.34;;;-5.20;80.97
33422;BME280;19763;55.798;37.782;2023-03-11T04:47:10;146101.75;;;-4.98;80.79
33422;BME280;19763;55.798;37.782;2023-03-11T04:49:36;146143.53;;;-4.81;80.58
33422;BME280;19763;55.798;37.782;2023-03-11T04:52:02;146087.81;;;-5.04;80.17
33422;BME280;19763;55.798;37.782;2023-03-11T04:54:28;146080.22;;;-5.07;79.50
33422;BME280;19763;55.798;37.782;2023-03-11T04:56:53;146087.81;;;-5.04;78.75
33422;BME280;19763;55.798;37.782;2023-03-11T04:59:19;146046.06;;;-5.21;80.87
33422;BME280;19763;55.798;37.782;2023-03-11T05:01:44;146048.59;;;-5.20;81.09
33422;BME280;19763;55.798;37.782;2023-03-11T05:04:10;146101.75;;;-4.98;79.61
33422;BME280;19763;55.798;37.782;2023-03-11T05:06:37;146103.00;;;-4.97;80.49
33422;BME280;19763;55.798;37.782;2023-03-11T05:09:03;146080.22;;;-5.07;80.79
33422;BME280;19763;55.798;37.782;2023-03-11T05:11:29;146047.34;;;-5.20;81.04
33422;BME280;19763;55.798;37.782;2023-03-11T05:13:55;146077.69;;;-5.08;79.94
33422;BME280;19763;55.798;37.782;2023-03-11T05:16:20;146051.13;;;-5.18;81.45
33422;BME280;19763;55.798;37.782;2023-03-11T05:18:46;145947.38;;;-5.61;82.28
33422;BME280;19763;55.798;37.782;2023-03-11T05:21:12;146038.47;;;-5.24;80.76
33422;BME280;19763;55.798;37.782;2023-03-11T05:23:37;145996.72;;;-5.41;80.51
33422;BME280;19763;55.798;37.782;2023-03-11T05:26:03;146075.19;;;-5.09;81.84
33422;BME280;19763;55.798;37.782;2023-03-11T05:28:28;146054.94;;;-5.17;81.01
33422;BME280;19763;55.798;37.782;2023-03-11T05:30:54;146037.22;;;-5.24;79.39
33422;BME280;19763;55.798;37.782;2023-03-11T05:33:20;146052.38;;;-5.18;79.97
33422;BME280;19763;55.798;37.782;2023-03-11T05:35:45;146048.59;;;-5.20;80.74
33422;BME280;19763;55.798;37.782;2023-03-11T05:38:11;146086.56;;;-5.04;80.05
33422;BME280;19763;55.798;37.782;2023-03-11T05:40:36;146004.28;;;-5.38;81.54
33422;BME280;19763;55.798;37.782;2023-03-11T05:43:02;146124.56;;;-4.89;81.33
33422;BME280;19763;55.798;37.782;2023-03-11T05:45:28;146092.91;;;-5.01;81.54
33422;BME280;19763;55.798;37.782;2023-03-11T05:47:53;146071.34;;;-5.10;81.77
33422;BME280;19763;55.798;37.782;2023-03-11T05:50:19;146124.56;;;-4.89;81.11
33422;BME280;19763;55.798;37.782;2023-03-11T05:52:45;146110.63;;;-4.94;80.18
33422;BME280;19763;55.798;37.782;2023-03-11T05:55:11;146147.31;;;-4.79;80.30
33422;BME280;19763;55.798;37.782;2023-03-11T05:57:37;146049.84;;;-5.19;81.28
33422;BME280;19763;55.798;37.782;2023-03-11T06:00:05;146123.25;;;-4.89;80.51
33422;BME280;19763;55.798;37.782;2023-03-11T06:02:36;146156.19;;;-4.76;81.28
33422;BME280;19763;55.798;37.782;2023-03-11T06:05:02;146165.03;;;-4.72;80.51
33422;BME280;19763;55.798;37.782;2023-03-11T06:07:28;146211.91;;;-4.53;79.24
33422;BME280;19763;55.798;37.782;2023-03-11T06:09:54;146222.00;;;-4.49;79.63
33422;BME280;19763;55.798;37.782;2023-03-11T06:12:19;146194.13;;;-4.60;79.81
33422;BME280;19763;55.798;37.782;2023-03-11T06:14:45;146254.94;;;-4.36;79.03
33422;BME280;19763;55.798;37.782;2023-03-11T06:17:10;146196.69;;;-4.59;78.71
33422;BME280;19763;55.798;37.782;2023-03-11T06:19:36;146220.75;;;-4.49;80.27
33422;BME280;19763;55.798;37.782;2023-03-11T06:22:01;146194.13;;;-4.60;78.93
33422;BME280;19763;55.798;37.782;2023-03-11T06:24:27;146175.16;;;-4.68;80.06
33422;BME280;19763;55.798;37.782;2023-03-11T06:26:53;146124.56;;;-4.89;79.95
33422;BME280;19763;55.798;37.782;2023-03-11T06:29:18;146223.28;;;-4.48;79.23
33422;BME280;19763;55.798;37.782;2023-03-11T06:31:46;146133.38;;;-4.85;80.17
33422;BME280;19763;55.798;37.782;2023-03-11T06:34:11;146171.38;;;-4.70;81.15
33422;BME280;19763;55.798;37.782;2023-03-11T06:36:37;146162.50;;;-4.73;79.50
33422;BME280;19763;55.798;37.782;2023-03-11T06:39:03;146166.34;;;-4.72;79.67
33422;BME280;19763;55.798;37.782;2023-03-11T06:41:28;146168.81;;;-4.71;80.69
33422;BME280;19763;55.798;37.782;2023-03-11T06:43:57;146203.03;;;-4.57;79.81
33422;BME280;19763;55.798;37.782;2023-03-11T06:46:24;146194.13;;;-4.60;80.48
33422;BME280;19763;55.798;37.782;2023-03-11T06:48:49;146290.41;;;-4.21;80.03
33422;BME280;19763;55.798;37.782;2023-03-11T06:51:17;146277.72;;;-4.26;79.96
33422;BME280;19763;55.798;37.782;2023-03-11T06:53:44;146161.25;;;-4.74;80.18
33422;BME280;19763;55.798;37.782;2023-03-11T06:56:12;146152.41;;;-4.77;81.13
33422;BME280;19763;55.798;37.782;2023-03-11T06:58:39;146140.97;;;-4.82;81.11
33422;BME280;19763;55.798;37.782;2023-03-11T07:01:09;146222.00;;;-4.49;81.92
33422;BME280;19763;55.798;37.782;2023-03-11T07:03:35;146253.66;;;-4.36;80.64
33422;BME280;19763;55.798;37.782;2023-03-11T07:06:00;146204.28;;;-4.56;80.48
33422;BME280;19763;55.798;37.782;2023-03-11T07:08:26;146211.91;;;-4.53;81.39
33422;BME280;19763;55.798;37.782;2023-03-11T07:11:17;146200.47;;;-4.58;82.30
33422;BME280;19763;55.798;37.782;2023-03-11T07:13:45;146262.53;;;-4.32;81.52
33422;BME280;19763;55.798;37.782;2023-03-11T07:16:13;146211.91;;;-4.53;80.40
33422;BME280;19763;55.798;37.782;2023-03-11T07:18:40;146296.75;;;-4.19;80.93
33422;BME280;19763;55.798;37.782;2023-03-11T07:21:07;146244.81;;;-4.40;80.39
33422;BME280;19763;55.798;37.782;2023-03-11T07:23:33;146201.78;;;-4.57;81.04
33422;BME280;19763;55.798;37.782;2023-03-11T07:25:59;146253.66;;;-4.36;82.02
33422;BME280;19763;55.798;37.782;2023-03-11T07:28:26;146190.34;;;-4.62;81.09
33422;BME280;19763;55.798;37.782;2023-03-11T07:30:53;146189.09;;;-4.62;81.30
33422;BME280;19763;55.798;37.782;2023-03-11T07:33:20;146219.50;;;-4.50;81.87
33422;BME280;19763;55.798;37.782;2023-03-11T07:35:46;146171.38;;;-4.70;82.23
33422;BME280;19763;55.798;37.782;2023-03-11T07:38:14;146160.00;;;-4.74;81.93
33422;BME280;19763;55.798;37.782;2023-03-11T07:40:41;146222.00;;;-4.49;82.91
33422;BME280;19763;55.798;37.782;2023-03-11T07:43:07;146170.13;;;-4.70;82.10
33422;BME280;19763;55.798;37.782;2023-03-11T07:45:33;146200.47;;;-4.58;81.69
33422;BME280;19763;55.798;37.782;2023-03-11T07:47:58;146257.50;;;-4.35;81.44
33422;BME280;19763;55.798;37.782;2023-03-11T07:50:24;146347.41;;;-3.98;81.33
33422;BME280;19763;55.798;37.782;2023-03-11T07:52:49;146213.16;;;-4.53;80.86
33422;BME280;19763;55.798;37.782;2023-03-11T07:55:15;146247.34;;;-4.39;79.30
33422;BME280;19763;55.798;37.782;2023-03-11T07:57:40;146216.94;;;-4.51;80.18
33422;BME280;19763;55.798;37.782;2023-03-11T08:00:08;146208.06;;;-4.55;80.11
33422;BME280;19763;55.798;37.782;2023-03-11T08:02:34;146252.41;;;-4.37;79.71
33422;BME280;19763;55.798;37.782;2023-03-11T08:04:59;146241.03;;;-4.41;80.79
33422;BME280;19763;55.798;37.782;2023-03-11T08:07:25;146232.13;;;-4.45;80.42
33422;BME280;19763;55.798;37.782;2023-03-11T08:09:51;146209.38;;;-4.54;81.90
33422;BME280;19763;55.798;37.782;2023-03-11T08:12:16;146244.81;;;-4.40;81.64
33422;BME280;19763;55.798;37.782;2023-03-11T08:14:42;146266.34;;;-4.31;81.32
33422;BME280;19763;55.798;37.782;2023-03-11T08:17:08;146214.41;;;-4.52;82.01
33422;BME280;19763;55.798;37.782;2023-03-11T08:19:34;146244.81;;;-4.40;82.25
33422;BME280;19763;55.798;37.782;2023-03-11T08:22:03;146244.81;;;-4.40;80.96
33422;BME280;19763;55.798;37.782;2023-03-11T08:24:29;146290.41;;;-4.21;81.43
33422;BME280;19763;55.798;37.782;2023-03-11T08:26:54;146334.75;;;-4.03;81.22
33422;BME280;19763;55.798;37.782;2023-03-11T08:29:22;146276.47;;;-4.27;81.23
33422;BME280;19763;55.798;37.782;2023-03-11T08:31:47;146187.84;;;-4.63;83.57
33422;BME280;19763;55.798;37.782;2023-03-11T08:34:13;146282.81;;;-4.24;82.56
33422;BME280;19763;55.798;37.782;2023-03-11T08:36:39;146237.22;;;-4.43;82.27
33422;BME280;19763;55.798;37.782;2023-03-11T08:39:05;146282.81;;;-4.24;83.20
33422;BME280;19763;55.798;37.782;2023-03-11T08:41:31;146323.31;;;-4.08;82.56
33422;BME280;19763;55.798;37.782;2023-03-11T08:43:57;146289.16;;;-4.22;83.38
33422;BME280;19763;55.798;37.782;2023-03-11T08:46:26;146308.13;;;-4.14;82.91
33422;BME280;19763;55.798;37.782;2023-03-11T08:48:52;146366.44;;;-3.90;82.96
33422;BME280;19763;55.798;37.782;2023-03-11T08:51:18;146330.91;;;-4.05;81.93
33422;BME280;19763;55.798;37.782;2023-03-11T08:53:44;146356.28;;;-3.94;80.71
33422;BME280;19763;55.798;37.782;2023-03-11T08:56:10;146318.28;;;-4.10;81.59
33422;BME280;19763;55.798;37.782;2023-03-11T08:58:36;146351.19;;;-3.96;81.75
33422;BME280;19763;55.798;37.782;2023-03-11T09:01:03;146351.19;;;-3.96;81.38
33422;BME280;19763;55.798;37.782;2023-03-11T09:03:33;146391.75;;;-3.80;80.73
33422;BME280;19763;55.798;37.782;2023-03-11T09:06:08;146414.53;;;-3.71;80.47
33422;BME280;19763;55.798;37.782;2023-03-11T09:08:34;146298.00;;;-4.18;81.49
33422;BME280;19763;55.798;37.782;2023-03-11T09:11:00;146404.41;;;-3.75;82.60
33422;BME280;19763;55.798;37.782;2023-03-11T09:13:26;146434.81;;;-3.62;81.84
33422;BME280;19763;55.798;37.782;2023-03-11T09:15:52;146356.28;;;-3.94;80.56
33422;BME280;19763;55.798;37.782;2023-03-11T09:18:18;146368.94;;;-3.89;80.06
33422;BME280;19763;55.798;37.782;2023-03-11T09:20:44;146358.78;;;-3.93;79.33
33422;BME280;19763;55.798;37.782;2023-03-11T09:23:12;146347.41;;;-3.98;80.34
33422;BME280;19763;55.798;37.782;2023-03-11T09:25:38;146391.75;;;-3.80;80.49
33422;BME280;19763;55.798;37.782;2023-03-11T09:28:04;146349.94;;;-3.97;80.46
33422;BME280;19763;55.798;37.782;2023-03-11T09:30:30;146371.47;;;-3.88;80.54
33422;BME280;19763;55.798;37.782;2023-03-11T09:32:56;146363.88;;;-3.91;81.65
33422;BME280;19763;55.798;37.782;2023-03-11T09:35:22;146290.41;;;-4.21;84.25
33422;BME280;19763;55.798;37.782;2023-03-11T09:37:48;146262.53;;;-4.32;84.43
33422;BME280;19763;55.798;37.782;2023-03-11T09:40:21;146296.75;;;-4.19;86.50
33422;BME280;19763;55.798;37.782;2023-03-11T09:43:09;146367.69;;;-3.90;86.04
33422;BME280;19763;55.798;37.782;2023-03-11T09:45:43;146399.34;;;-3.77;85.33
33422;BME280;19763;55.798;37.782;2023-03-11T09:50:59;146420.88;;;-3.68;84.17
33422;BME280;19763;55.798;37.782;2023-03-11T09:53:43;146419.63;;;-3.69;84.09
33422;BME280;19763;55.798;37.782;2023-03-11T09:56:14;146432.28;;;-3.64;83.57
33422;BME280;19763;55.798;37.782;2023-03-11T09:58:50;146387.97;;;-3.82;84.08
33422;BME280;19763;55.798;37.782;2023-03-11T10:01:35;146422.19;;;-3.68;83.51
33422;BME280;19763;55.798;37.782;2023-03-11T10:04:13;146456.38;;;-3.54;82.86
33422;BME280;19763;55.798;37.782;2023-03-11T10:06:43;146462.72;;;-3.51;82.87
33422;BME280;19763;55.798;37.782;2023-03-11T10:11:53;146370.22;;;-3.89;83.94
33422;BME280;19763;55.798;37.782;2023-03-11T10:26:02;146442.44;;;-3.59;82.58
33422;BME280;19763;55.798;37.782;2023-03-11T10:28:36;146399.34;;;-3.77;81.68
33422;BME280;19763;55.798;37.782;2023-03-11T10:31:21;146452.56;;;-3.55;82.01
33422;BME280;19763;55.798;37.782;2023-03-11T10:36:31;146472.84;;;-3.47;80.83
33422;BME280;19763;55.798;37.782;2023-03-11T10:38:59;146496.94;;;-3.37;80.83
33422;BME280;19763;55.798;37.782;2023-03-11T10:41:30;146513.44;;;-3.31;80.59
33422;BME280;19763;55.798;37.782;2023-03-11T10:44:03;146466.50;;;-3.50;81.35
33422;BME280;19763;55.798;37.782;2023-03-11T10:46:30;146518.50;;;-3.28;80.94
33422;BME280;19763;55.798;37.782;2023-03-11T10:48:56;146527.38;;;-3.25;81.06
33422;BME280;19763;55.798;37.782;2023-03-11T10:51:23;146504.53;;;-3.34;81.32
33422;BME280;19763;55.798;37.782;2023-03-11T10:53:56;146518.50;;;-3.28;80.24
33422;BME280;19763;55.798;37.782;2023-03-11T10:56:39;146493.16;;;-3.39;80.77
33422;BME280;19763;55.798;37.782;2023-03-11T10:59:31;146471.59;;;-3.48;81.17
33422;BME280;19763;55.798;37.782;2023-03-11T11:02:24;146472.84;;;-3.47;80.80
33422;BME280;19763;55.798;37.782;2023-03-11T11:05:07;146458.91;;;-3.53;81.35
33422;BME280;19763;55.798;37.782;2023-03-11T11:07:46;146436.06;;;-3.62;80.84
33422;BME280;19763;55.798;37.782;2023-03-11T11:10:25;146455.13;;;-3.54;80.37
33422;BME280;19763;55.798;37.782;2023-03-11T11:12:56;146526.09;;;-3.25;81.01
33422;BME280;19763;55.798;37.782;2023-03-11T11:15:34;146521.03;;;-3.27;80.32
33422;BME280;19763;55.798;37.782;2023-03-11T11:18:02;146447.53;;;-3.57;80.95
33422;BME280;19763;55.798;37.782;2023-03-11T11:20:30;146526.09;;;-3.25;80.67
33422;BME280;19763;55.798;37.782;2023-03-11T11:23:01;146508.34;;;-3.33;80.46
33422;BME280;19763;55.798;37.782;2023-03-11T11:28:16;146556.53;;;-3.13;79.54
33422;BME280;19763;55.798;37.782;2023-03-11T11:31:04;146504.53;;;-3.34;80.13
33422;BME280;19763;55.798;37.782;2023-03-11T11:34:13;146557.78;;;-3.13;79.57
33422;BME280;19763;55.798;37.782;2023-03-11T11:36:27;146579.31;;;-3.04;78.99
33422;BME280;19763;55.798;37.782;2023-03-11T11:38:54;146541.28;;;-3.19;80.29
33422;BME280;19763;55.798;37.782;2023-03-11T11:41:22;146513.44;;;-3.31;79.89
33422;BME280;19763;55.798;37.782;2023-03-11T11:46:29;146614.81;;;-2.89;79.92
33422;BME280;19763;55.798;37.782;2023-03-11T11:49:02;146599.63;;;-2.96;79.40
33422;BME280;19763;55.798;37.782;2023-03-11T11:54:37;146573.03;;;-3.06;79.89
33422;BME280;19763;55.798;37.782;2023-03-11T11:57:11;146531.19;;;-3.23;80.44
33422;BME280;19763;55.798;37.782;2023-03-11T11:59:37;146534.97;;;-3.22;80.35
33422;BME280;19763;55.798;37.782;2023-03-11T12:02:27;146531.19;;;-3.23;80.28
33422;BME280;19763;55.798;37.782;2023-03-11T12:11:06;146504.53;;;-3.34;79.83
33422;BME280;19763;55.798;37.782;2023-03-11T12:18:43;146523.53;;;-3.26;80.43
33422;BME280;19763;55.798;37.782;2023-03-11T12:21:28;146490.59;;;-3.40;80.90
33422;BME280;19763;55.798;37.782;2023-03-11T12:26:37;146515.94;;;-3.30;80.43
33422;BME280;19763;55.798;37.782;2023-03-11T12:32:41;146537.47;;;-3.21;79.80
33422;BME280;19763;55.798;37.782;2023-03-11T12:35:27;146562.88;;;-3.10;80.17
33422;BME280;19763;55.798;37.782;2023-03-11T12:41:11;146586.94;;;-3.01;79.50
33422;BME280;19763;55.798;37.782;2023-03-11T12:46:10;146543.84;;;-3.18;80.58
33422;BME280;19763;55.798;37.782;2023-03-11T12:50:34;146556.53;;;-3.13;79.82
33422;BME280;19763;55.798;37.782;2023-03-11T12:52:24;146531.19;;;-3.23;80.56
33422;BME280;19763;55.798;37.782;2023-03-11T12:57:35;146522.28;;;-3.27;80.32
33422;BME280;19763;55.798;37.782;2023-03-11T13:00:19;146538.78;;;-3.20;80.31
33422;BME280;19763;55.798;37.782;2023-03-11T13:05:51;146534.97;;;-3.22;80.73
33422;BME280;19763;55.798;37.782;2023-03-11T13:08:26;146573.03;;;-3.06;80.67
33422;BME280;19763;55.798;37.782;2023-03-11T13:10:54;146565.38;;;-3.09;80.43
33422;BME280;19763;55.798;37.782;2023-03-11T13:18:45;146595.81;;;-2.97;80.18
33422;BME280;19763;55.798;37.782;2023-03-11T13:40:39;146631.31;;;-2.83;79.84
33422;BME280;19763;55.798;37.782;2023-03-11T13:43:13;146570.47;;;-3.07;80.63
33422;BME280;19763;55.798;37.782;2023-03-11T13:45:40;146593.28;;;-2.98;80.85
33422;BME280;19763;55.798;37.782;2023-03-11T13:48:36;146586.94;;;-3.01;81.21
33422;BME280;19763;55.798;37.782;2023-03-11T13:51:21;146642.72;;;-2.78;80.99
33422;BME280;19763;55.798;37.782;2023-03-11T13:53:56;146666.84;;;-2.68;80.21
33422;BME280;19763;55.798;37.782;2023-03-11T13:56:43;146623.72;;;-2.86;80.57
33422;BME280;19763;55.798;37.782;2023-03-11T13:59:17;146665.56;;;-2.69;80.42
33422;BME280;19763;55.798;37.782;2023-03-11T14:01:55;146600.88;;;-2.95;80.81
33422;BME280;19763;55.798;37.782;2023-03-11T14:04:27;146574.28;;;-3.06;80.32
33422;BME280;19763;55.798;37.782;2023-03-11T14:06:53;146597.06;;;-2.97;81.79
33422;BME280;19763;55.798;37.782;2023-03-11T14:09:21;146592.03;;;-2.99;81.18
33422;BME280;19763;55.798;37.782;2023-03-11T14:11:47;146614.81;;;-2.89;81.64
33422;BME280;19763;55.798;37.782;2023-03-11T14:14:54;146594.56;;;-2.98;82.00
33422;BME280;19763;55.798;37.782;2023-03-11T14:17:23;146581.88;;;-3.03;82.78
33422;BME280;19763;55.798;37.782;2023-03-11T14:20:15;146622.47;;;-2.86;82.85